sensor_id;sensor_type;location;lat;lon;timestamp;temperature;humidity
5334;DHT22;2689;50.954;7.116;2023-05-21T00:01:43;14.20;99.90
5334;DHT22;2689;50.954;7.116;2023-05-21T00:04:13;14.20;99.90
5334;DHT22;2689;50.954;7.116;2023-05-21T00:06:41;14.20;99.90
5334;DHT22;2689;50.954;7.116;2023-05-21T00:09:08;14.10;99.90
5334;DHT22;2689;50.954;7.116;2023-05-21T00:11:37;14.10;99.90
5334;DHT22;2689;50.954;7.116;2023-05-21T00:14:03;14.10;99.90
5334;DHT22;2689;50.954;7.116;2023-05-21T00:16:30;14.10;99.90
5334;DHT22;2689;50.954;7.116;2023-05-21T00:18:57;14.10;99.90
5334;DHT22;2689;50.954;7.116;2023-05-21T00:21:24;14.10;99.90
5334;DHT22;2689;50.954;7.116;2023-05-21T00:23:52;14.10;99.90
5334;DHT22;2689;50.954;7.116;2023-05-21T00:26:20;14.00;99.90
5334;DHT22;2689;50.954;7.116;2023-05-21T00:28:48;14.00;99.90
5334;DHT22;2689;50.954;7.116;2023-05-21T00:31:15;14.00;99.90
5334;DHT22;2689;50.954;7.116;2023-05-21T00:33:43;14.00;99.90
5334;DHT22;2689;50.954;7.116;2023-05-21T00:36:10;14.00;99.90
5334;DHT22;2689;50.954;7.116;2023-05-21T00:38:38;14.00;99.90
5334;DHT22;2689;50.954;7.116;2023-05-21T00:41:09;14.00;99.90
5334;DHT22;2689;50.954;7.116;2023-05-21T00:43:36;14.00;99.90
5334;DHT22;2689;50.954;7.116;2023-05-21T00:46:06;14.00;99.90
5334;DHT22;2689;50.954;7.116;2023-05-21T00:48:33;14.00;99.90
5334;DHT22;2689;50.954;7.116;2023-05-21T00:51:00;14.00;99.90
5334;DHT22;2689;50.954;7.116;2023-05-21T00:53:27;13.90;99.90
5334;DHT22;2689;50.954;7.116;2023-05-21T00:55:54;13.90;99.90
5334;DHT22;2689;50.954;7.116;2023-05-21T00:58:23;13.90;99.90
5334;DHT22;2689;50.954;7.116;2023-05-21T01:00:50;13.90;99.90
5334;DHT22;2689;50.954;7.116;2023-05-21T01:03:21;13.90;99.90
5334;DHT22;2689;50.954;7.116;2023-05-21T01:05:49;13.90;99.90
5334;DHT22;2689;50.954;7.116;2023-05-21T01:08:18;13.90;99.90
5334;DHT22;2689;50.954;7.116;2023-05-21T01:10:45;13.90;99.90
5334;DHT22;2689;50.954;7.116;2023-05-21T01:13:12;14.00;99.90
5334;DHT22;2689;50.954;7.116;2023-05-21T01:15:41;13.90;99.90
5334;DHT22;2689;50.954;7.116;2023-05-21T01:18:08;13.90;99.90
5334;DHT22;2689;50.954;7.116;2023-05-21T01:20:36;13.90;99.90
5334;DHT22;2689;50.954;7.116;2023-05-21T01:23:05;13.90;99.90
5334;DHT22;2689;50.954;7.116;2023-05-21T01:25:31;13.90;99.90
5334;DHT22;2689;50.954;7.116;2023-05-21T01:27:59;13.90;99.90
5334;DHT22;2689;50.954;7.116;2023-05-21T01:30:26;13.90;99.90
5334;DHT22;2689;50.954;7.116;2023-05-21T01:32:59;13.90;99.90
5334;DHT22;2689;50.954;7.116;2023-05-21T01:35:29;13.90;99.90
5334;DHT22;2689;50.954;7.116;2023-05-21T01:38:03;13.90;99.90
5334;DHT22;2689;50.954;7.116;2023-05-21T01:40:36;13.90;99.90
5334;DHT22;2689;50.954;7.116;2023-05-21T01:43:06;13.80;99.90
5334;DHT22;2689;50.954;7.116;2023-05-21T01:45:36;13.80;99.90
5334;DHT22;2689;50.954;7.116;2023-05-21T01:48:05;13.80;99.90
5334;DHT22;2689;50.954;7.116;2023-05-21T01:50:33;13.80;99.90
5334;DHT22;2689;50.954;7.116;2023-05-21T01:53:00;13.80;99.90
5334;DHT22;2689;50.954;7.116;2023-05-21T01:55:28;13.70;99.90
5334;DHT22;2689;50.954;7.116;2023-05-21T01:57:57;13.70;99.90
5334;DHT22;2689;50.954;7.116;2023-05-21T02:00:25;13.70;99.90
5334;DHT22;2689;50.954;7.116;2023-05-21T02:02:53;13.70;99.90
5334;DHT22;2689;50.954;7.116;2023-05-21T02:05:20;13.70;99.90
5334;DHT22;2689;50.954;7.116;2023-05-21T02:07:49;13.70;99.90
5334;DHT22;2689;50.954;7.116;2023-05-21T02:10:16;13.70;99.90
5334;DHT22;2689;50.954;7.116;2023-05-21T02:12:43;13.70;99.90
5334;DHT22;2689;50.954;7.116;2023-05-21T02:15:11;13.70;99.90
5334;DHT22;2689;50.954;7.116;2023-05-21T02:17:42;13.70;99.90
5334;DHT22;2689;50.954;7.116;2023-05-21T02:20:09;13.70;99.90
5334;DHT22;2689;50.954;7.116;2023-05-21T02:22:37;13.60;99.90
5334;DHT22;2689;50.954;7.116;2023-05-21T02:25:05;13.60;99.90
5334;DHT22;2689;50.954;7.116;2023-05-21T02:27:33;13.60;99.90
5334;DHT22;2689;50.954;7.116;2023-05-21T02:30:01;13.60;99.90
5334;DHT22;2689;50.954;7.116;2023-05-21T02:32:30;13.60;99.90
5334;DHT22;2689;50.954;7.116;2023-05-21T02:34:57;13.60;99.90
5334;DHT22;2689;50.954;7.116;2023-05-21T02:37:24;13.60;99.90
5334;DHT22;2689;50.954;7.116;2023-05-21T02:39:52;13.60;99.90
5334;DHT22;2689;50.954;7.116;2023-05-21T02:42:18;13.60;99.90
5334;DHT22;2689;50.954;7.116;2023-05-21T02:44:45;13.60;99.90
5334;DHT22;2689;50.954;7.116;2023-05-21T02:47:12;13.60;99.90
5334;DHT22;2689;50.954;7.116;2023-05-21T02:49:40;13.60;99.90
5334;DHT22;2689;50.954;7.116;2023-05-21T02:52:07;13.60;99.90
5334;DHT22;2689;50.954;7.116;2023-05-21T02:54:34;13.60;99.90
5334;DHT22;2689;50.954;7.116;2023-05-21T02:57:00;13.60;99.90
5334;DHT22;2689;50.954;7.116;2023-05-21T02:59:27;13.60;99.90
5334;DHT22;2689;50.954;7.116;2023-05-21T03:01:54;13.60;99.90
5334;DHT22;2689;50.954;7.116;2023-05-21T03:04:21;13.60;99.90
5334;DHT22;2689;50.954;7.116;2023-05-21T03:06:49;13.50;99.90
5334;DHT22;2689;50.954;7.116;2023-05-21T03:09:19;13.50;99.90
5334;DHT22;2689;50.954;7.116;2023-05-21T03:11:46;13.50;99.90
5334;DHT22;2689;50.954;7.116;2023-05-21T03:14:12;13.50;99.90
5334;DHT22;2689;50.954;7.116;2023-05-21T03:16:40;13.50;99.90
5334;DHT22;2689;50.954;7.116;2023-05-21T03:19:08;13.50;99.90
5334;DHT22;2689;50.954;7.116;2023-05-21T03:21:35;13.50;99.90
5334;DHT22;2689;50.954;7.116;2023-05-21T03:24:04;13.50;99.90
5334;DHT22;2689;50.954;7.116;2023-05-21T03:26:31;13.50;99.90
5334;DHT22;2689;50.954;7.116;2023-05-21T03:28:57;13.50;99.90
5334;DHT22;2689;50.954;7.116;2023-05-21T03:31:25;13.50;99.90
5334;DHT22;2689;50.954;7.116;2023-05-21T03:33:53;13.50;99.90
5334;DHT22;2689;50.954;7.116;2023-05-21T03:36:20;13.50;99.90
5334;DHT22;2689;50.954;7.116;2023-05-21T03:38:46;13.50;99.90
5334;DHT22;2689;50.954;7.116;2023-05-21T03:41:14;13.40;99.90
5334;DHT22;2689;50.954;7.116;2023-05-21T03:43:41;13.50;99.90
5334;DHT22;2689;50.954;7.116;2023-05-21T03:46:08;13.50;99.90
5334;DHT22;2689;50.954;7.116;2023-05-21T03:48:34;13.50;99.90
5334;DHT22;2689;50.954;7.116;2023-05-21T03:51:01;13.50;99.90
5334;DHT22;2689;50.954;7.116;2023-05-21T03:53:28;13.50;99.90
5334;DHT22;2689;50.954;7.116;2023-05-21T03:55:55;13.50;99.90
5334;DHT22;2689;50.954;7.116;2023-05-21T03:58:23;13.50;99.90
5334;DHT22;2689;50.954;7.116;2023-05-21T04:00:51;13.50;99.90
5334;DHT22;2689;50.954;7.116;2023-05-21T04:03:18;13.50;99.90
5334;DHT22;2689;50.954;7.116;2023-05-21T04:05:44;13.60;99.90
5334;DHT22;2689;50.954;7.116;2023-05-21T04:08:11;13.60;99.90
5334;DHT22;2689;50.954;7.116;2023-05-21T04:10:38;13.60;99.90
5334;DHT22;2689;50.954;7.116;2023-05-21T04:13:05;13.60;99.90
5334;DHT22;2689;50.954;7.116;2023-05-21T04:15:33;13.70;99.90
5334;DHT22;2689;50.954;7.116;2023-05-21T04:18:00;13.70;99.90
5334;DHT22;2689;50.954;7.116;2023-05-21T04:20:26;13.70;99.90
5334;DHT22;2689;50.954;7.116;2023-05-21T04:22:53;13.70;99.90
5334;DHT22;2689;50.954;7.116;2023-05-21T04:25:20;13.70;99.90
5334;DHT22;2689;50.954;7.116;2023-05-21T04:27:48;13.70;99.90
5334;DHT22;2689;50.954;7.116;2023-05-21T04:30:14;13.70;99.90
5334;DHT22;2689;50.954;7.116;2023-05-21T04:32:42;13.70;99.90
5334;DHT22;2689;50.954;7.116;2023-05-21T04:35:12;13.70;99.90
5334;DHT22;2689;50.954;7.116;2023-05-21T04:37:40;13.80;99.90
5334;DHT22;2689;50.954;7.116;2023-05-21T04:40:10;13.80;99.90
5334;DHT22;2689;50.954;7.116;2023-05-21T04:42:42;13.90;99.90
5334;DHT22;2689;50.954;7.116;2023-05-21T04:45:10;13.90;99.90
5334;DHT22;2689;50.954;7.116;2023-05-21T04:47:36;13.80;99.90
5334;DHT22;2689;50.954;7.116;2023-05-21T04:50:06;13.80;99.90
5334;DHT22;2689;50.954;7.116;2023-05-21T04:52:33;13.80;99.90
5334;DHT22;2689;50.954;7.116;2023-05-21T04:55:00;13.80;99.90
5334;DHT22;2689;50.954;7.116;2023-05-21T04:57:27;13.80;99.90
5334;DHT22;2689;50.954;7.116;2023-05-21T04:59:54;13.80;99.90
5334;DHT22;2689;50.954;7.116;2023-05-21T05:02:22;13.90;99.90
5334;DHT22;2689;50.954;7.116;2023-05-21T05:04:49;13.90;99.90
5334;DHT22;2689;50.954;7.116;2023-05-21T05:07:17;13.90;99.90
5334;DHT22;2689;50.954;7.116;2023-05-21T05:09:43;14.00;99.90
5334;DHT22;2689;50.954;7.116;2023-05-21T05:12:10;14.00;99.90
5334;DHT22;2689;50.954;7.116;2023-05-21T05:14:37;14.10;99.90
5334;DHT22;2689;50.954;7.116;2023-05-21T05:17:04;14.10;99.90
5334;DHT22;2689;50.954;7.116;2023-05-21T05:19:32;14.10;99.90
5334;DHT22;2689;50.954;7.116;2023-05-21T05:21:59;14.10;99.90
5334;DHT22;2689;50.954;7.116;2023-05-21T05:24:27;14.20;99.90
5334;DHT22;2689;50.954;7.116;2023-05-21T05:26:54;14.20;99.90
5334;DHT22;2689;50.954;7.116;2023-05-21T05:29:20;14.30;99.90
5334;DHT22;2689;50.954;7.116;2023-05-21T05:31:47;14.40;99.90
5334;DHT22;2689;50.954;7.116;2023-05-21T05:34:14;14.40;99.90
5334;DHT22;2689;50.954;7.116;2023-05-21T05:36:41;14.50;99.90
5334;DHT22;2689;50.954;7.116;2023-05-21T05:39:08;14.50;99.90
5334;DHT22;2689;50.954;7.116;2023-05-21T05:41:36;14.50;99.90
5334;DHT22;2689;50.954;7.116;2023-05-21T05:44:03;14.60;99.90
5334;DHT22;2689;50.954;7.116;2023-05-21T05:46:30;14.60;99.90
5334;DHT22;2689;50.954;7.116;2023-05-21T05:48:56;14.70;99.90
5334;DHT22;2689;50.954;7.116;2023-05-21T05:51:23;14.70;99.90
5334;DHT22;2689;50.954;7.116;2023-05-21T05:53:50;14.70;99.90
5334;DHT22;2689;50.954;7.116;2023-05-21T05:56:16;14.80;99.90
5334;DHT22;2689;50.954;7.116;2023-05-21T05:58:45;14.90;99.90
5334;DHT22;2689;50.954;7.116;2023-05-21T06:01:11;14.90;99.90
5334;DHT22;2689;50.954;7.116;2023-05-21T06:03:38;15.00;99.90
5334;DHT22;2689;50.954;7.116;2023-05-21T06:06:05;15.00;99.90
5334;DHT22;2689;50.954;7.116;2023-05-21T06:08:32;15.10;99.90
5334;DHT22;2689;50.954;7.116;2023-05-21T06:11:00;15.10;99.90
5334;DHT22;2689;50.954;7.116;2023-05-21T06:13:27;15.20;99.90
5334;DHT22;2689;50.954;7.116;2023-05-21T06:15:55;15.30;99.90
5334;DHT22;2689;50.954;7.116;2023-05-21T06:18:21;15.40;99.90
5334;DHT22;2689;50.954;7.116;2023-05-21T06:20:48;15.50;99.90
5334;DHT22;2689;50.954;7.116;2023-05-21T06:23:15;15.60;99.90
5334;DHT22;2689;50.954;7.116;2023-05-21T06:25:42;15.70;99.90
5334;DHT22;2689;50.954;7.116;2023-05-21T06:28:09;15.70;99.90
5334;DHT22;2689;50.954;7.116;2023-05-21T06:30:35;15.70;99.90
5334;DHT22;2689;50.954;7.116;2023-05-21T06:33:03;15.70;99.90
5334;DHT22;2689;50.954;7.116;2023-05-21T06:35:31;15.70;99.90
5334;DHT22;2689;50.954;7.116;2023-05-21T06:38:01;15.70;99.90
5334;DHT22;2689;50.954;7.116;2023-05-21T06:40:28;15.80;99.90
5334;DHT22;2689;50.954;7.116;2023-05-21T06:42:54;15.80;99.90
5334;DHT22;2689;50.954;7.116;2023-05-21T06:45:22;15.90;99.90
5334;DHT22;2689;50.954;7.116;2023-05-21T06:47:49;15.90;99.90
5334;DHT22;2689;50.954;7.116;2023-05-21T06:50:17;16.00;99.90
5334;DHT22;2689;50.954;7.116;2023-05-21T06:52:44;16.20;99.90
5334;DHT22;2689;50.954;7.116;2023-05-21T06:55:11;16.30;99.90
5334;DHT22;2689;50.954;7.116;2023-05-21T06:57:38;16.40;99.90
5334;DHT22;2689;50.954;7.116;2023-05-21T07:00:05;16.50;99.90
5334;DHT22;2689;50.954;7.116;2023-05-21T07:02:33;16.60;99.90
5334;DHT22;2689;50.954;7.116;2023-05-21T07:05:00;16.70;99.90
5334;DHT22;2689;50.954;7.116;2023-05-21T07:07:28;16.80;99.90
5334;DHT22;2689;50.954;7.116;2023-05-21T07:09:55;17.00;99.90
5334;DHT22;2689;50.954;7.116;2023-05-21T07:12:22;17.20;99.90
5334;DHT22;2689;50.954;7.116;2023-05-21T07:14:49;17.30;99.90
5334;DHT22;2689;50.954;7.116;2023-05-21T07:17:15;17.50;99.90
5334;DHT22;2689;50.954;7.116;2023-05-21T07:19:42;17.50;99.90
5334;DHT22;2689;50.954;7.116;2023-05-21T07:22:09;17.60;99.90
5334;DHT22;2689;50.954;7.116;2023-05-21T07:24:38;17.70;99.90
5334;DHT22;2689;50.954;7.116;2023-05-21T07:27:05;17.90;99.90
5334;DHT22;2689;50.954;7.116;2023-05-21T07:29:32;18.00;99.90
5334;DHT22;2689;50.954;7.116;2023-05-21T07:31:59;18.20;99.90
5334;DHT22;2689;50.954;7.116;2023-05-21T07:34:26;18.30;99.90
5334;DHT22;2689;50.954;7.116;2023-05-21T07:36:53;18.50;99.90
5334;DHT22;2689;50.954;7.116;2023-05-21T07:39:30;18.70;99.90
5334;DHT22;2689;50.954;7.116;2023-05-21T07:42:01;18.90;99.90
5334;DHT22;2689;50.954;7.116;2023-05-21T07:44:27;19.10;99.10
5334;DHT22;2689;50.954;7.116;2023-05-21T07:46:55;19.40;98.40
5334;DHT22;2689;50.954;7.116;2023-05-21T07:49:21;19.60;98.20
5334;DHT22;2689;50.954;7.116;2023-05-21T07:51:48;19.80;97.30
5334;DHT22;2689;50.954;7.116;2023-05-21T07:54:15;19.80;96.50
5334;DHT22;2689;50.954;7.116;2023-05-21T07:56:42;19.90;97.10
5334;DHT22;2689;50.954;7.116;2023-05-21T07:59:13;20.00;96.00
5334;DHT22;2689;50.954;7.116;2023-05-21T08:01:40;20.10;96.20
5334;DHT22;2689;50.954;7.116;2023-05-21T08:04:07;20.10;95.90
5334;DHT22;2689;50.954;7.116;2023-05-21T08:06:34;20.10;95.80
5334;DHT22;2689;50.954;7.116;2023-05-21T08:09:09;20.10;96.00
5334;DHT22;2689;50.954;7.116;2023-05-21T08:11:36;20.10;95.70
5334;DHT22;2689;50.954;7.116;2023-05-21T08:14:03;20.10;96.10
5334;DHT22;2689;50.954;7.116;2023-05-21T08:16:32;20.20;95.60
5334;DHT22;2689;50.954;7.116;2023-05-21T08:19:01;20.30;96.20
5334;DHT22;2689;50.954;7.116;2023-05-21T08:21:29;20.50;95.10
5334;DHT22;2689;50.954;7.116;2023-05-21T08:23:58;20.40;94.60
5334;DHT22;2689;50.954;7.116;2023-05-21T08:26:25;20.30;94.60
5334;DHT22;2689;50.954;7.116;2023-05-21T08:28:52;20.00;95.00
5334;DHT22;2689;50.954;7.116;2023-05-21T08:31:19;19.90;95.50
5334;DHT22;2689;50.954;7.116;2023-05-21T08:33:50;19.80;95.70
5334;DHT22;2689;50.954;7.116;2023-05-21T08:36:17;19.90;96.30
5334;DHT22;2689;50.954;7.116;2023-05-21T08:38:44;20.20;96.30
5334;DHT22;2689;50.954;7.116;2023-05-21T08:41:12;20.40;94.90
5334;DHT22;2689;50.954;7.116;2023-05-21T08:43:39;20.50;94.60
5334;DHT22;2689;50.954;7.116;2023-05-21T08:46:07;20.60;94.20
5334;DHT22;2689;50.954;7.116;2023-05-21T08:48:36;20.50;94.10
5334;DHT22;2689;50.954;7.116;2023-05-21T08:51:05;20.50;94.60
5334;DHT22;2689;50.954;7.116;2023-05-21T08:53:32;21.00;94.10
5334;DHT22;2689;50.954;7.116;2023-05-21T08:55:59;21.60;93.60
5334;DHT22;2689;50.954;7.116;2023-05-21T08:58:27;22.10;92.40
5334;DHT22;2689;50.954;7.116;2023-05-21T09:00:55;22.50;91.70
5334;DHT22;2689;50.954;7.116;2023-05-21T09:03:23;22.90;91.00
5334;DHT22;2689;50.954;7.116;2023-05-21T09:05:50;23.30;89.90
5334;DHT22;2689;50.954;7.116;2023-05-21T09:08:23;23.40;88.80
5334;DHT22;2689;50.954;7.116;2023-05-21T09:10:52;23.70;87.20
5334;DHT22;2689;50.954;7.116;2023-05-21T09:13:28;23.50;86.50
5334;DHT22;2689;50.954;7.116;2023-05-21T09:15:57;24.10;88.40
5334;DHT22;2689;50.954;7.116;2023-05-21T09:18:24;25.00;84.90
5334;DHT22;2689;50.954;7.116;2023-05-21T09:20:52;26.20;82.10
5334;DHT22;2689;50.954;7.116;2023-05-21T09:23:22;26.70;77.50
5334;DHT22;2689;50.954;7.116;2023-05-21T09:25:49;27.40;76.40
5334;DHT22;2689;50.954;7.116;2023-05-21T09:28:17;27.50;72.90
5334;DHT22;2689;50.954;7.116;2023-05-21T09:30:45;27.80;73.20
5334;DHT22;2689;50.954;7.116;2023-05-21T09:33:12;28.40;71.20
5334;DHT22;2689;50.954;7.116;2023-05-21T09:35:49;29.30;70.20
5334;DHT22;2689;50.954;7.116;2023-05-21T09:38:16;30.30;66.80
5334;DHT22;2689;50.954;7.116;2023-05-21T09:40:44;31.20;64.80
5334;DHT22;2689;50.954;7.116;2023-05-21T09:43:13;32.10;58.90
5334;DHT22;2689;50.954;7.116;2023-05-21T09:45:49;32.60;55.90
5334;DHT22;2689;50.954;7.116;2023-05-21T09:48:31;32.20;54.30
5334;DHT22;2689;50.954;7.116;2023-05-21T09:51:09;32.00;57.40
5334;DHT22;2689;50.954;7.116;2023-05-21T09:53:43;32.30;55.90
5334;DHT22;2689;50.954;7.116;2023-05-21T09:56:12;32.90;53.20
5334;DHT22;2689;50.954;7.116;2023-05-21T09:58:39;33.40;52.70
5334;DHT22;2689;50.954;7.116;2023-05-21T10:01:12;32.80;51.60
5334;DHT22;2689;50.954;7.116;2023-05-21T10:03:39;33.50;52.10
5334;DHT22;2689;50.954;7.116;2023-05-21T10:06:07;33.60;50.40
5334;DHT22;2689;50.954;7.116;2023-05-21T10:08:35;33.00;50.70
5334;DHT22;2689;50.954;7.116;2023-05-21T10:11:05;33.00;50.80
5334;DHT22;2689;50.954;7.116;2023-05-21T10:13:38;32.70;50.40
5334;DHT22;2689;50.954;7.116;2023-05-21T10:16:07;31.70;52.30
5334;DHT22;2689;50.954;7.116;2023-05-21T10:18:36;30.90;53.40
5334;DHT22;2689;50.954;7.116;2023-05-21T10:21:03;30.10;54.90
5334;DHT22;2689;50.954;7.116;2023-05-21T10:23:33;30.00;55.60
5334;DHT22;2689;50.954;7.116;2023-05-21T10:26:01;29.70;56.40
5334;DHT22;2689;50.954;7.116;2023-05-21T10:28:30;30.00;57.20
5334;DHT22;2689;50.954;7.116;2023-05-21T10:31:00;30.40;56.90
5334;DHT22;2689;50.954;7.116;2023-05-21T10:33:28;31.20;55.10
5334;DHT22;2689;50.954;7.116;2023-05-21T10:35:58;31.60;53.80
5334;DHT22;2689;50.954;7.116;2023-05-21T10:38:26;31.80;53.60
5334;DHT22;2689;50.954;7.116;2023-05-21T10:40:55;31.90;53.20
5334;DHT22;2689;50.954;7.116;2023-05-21T10:43:37;32.50;56.10
5334;DHT22;2689;50.954;7.116;2023-05-21T10:49:37;32.60;52.20
5334;DHT22;2689;50.954;7.116;2023-05-21T10:52:17;32.30;53.20
5334;DHT22;2689;50.954;7.116;2023-05-21T10:54:57;32.70;51.70
5334;DHT22;2689;50.954;7.116;2023-05-21T10:57:57;32.90;51.40
5334;DHT22;2689;50.954;7.116;2023-05-21T11:00:25;32.40;51.50
5334;DHT22;2689;50.954;7.116;2023-05-21T11:02:53;31.70;53.90
5334;DHT22;2689;50.954;7.116;2023-05-21T11:05:39;31.80;54.30
5334;DHT22;2689;50.954;7.116;2023-05-21T11:08:20;31.80;53.10
5334;DHT22;2689;50.954;7.116;2023-05-21T11:10:51;31.90;53.00
5334;DHT22;2689;50.954;7.116;2023-05-21T11:13:19;32.20;52.40
5334;DHT22;2689;50.954;7.116;2023-05-21T11:16:05;32.80;54.00
5334;DHT22;2689;50.954;7.116;2023-05-21T11:18:58;33.10;50.60
5334;DHT22;2689;50.954;7.116;2023-05-21T11:21:33;32.90;50.60
5334;DHT22;2689;50.954;7.116;2023-05-21T11:24:04;32.80;51.50
5334;DHT22;2689;50.954;7.116;2023-05-21T11:26:58;33.60;51.80
5334;DHT22;2689;50.954;7.116;2023-05-21T11:29:43;34.10;49.30
5334;DHT22;2689;50.954;7.116;2023-05-21T11:32:13;34.50;49.30
5334;DHT22;2689;50.954;7.116;2023-05-21T11:34:45;35.00;47.50
5334;DHT22;2689;50.954;7.116;2023-05-21T11:37:27;35.00;47.80
5334;DHT22;2689;50.954;7.116;2023-05-21T11:39:56;35.00;47.00
5334;DHT22;2689;50.954;7.116;2023-05-21T11:42:28;33.90;48.60
5334;DHT22;2689;50.954;7.116;2023-05-21T11:44:56;33.40;49.80
5334;DHT22;2689;50.954;7.116;2023-05-21T11:47:24;33.20;49.40
5334;DHT22;2689;50.954;7.116;2023-05-21T11:49:51;32.60;50.80
5334;DHT22;2689;50.954;7.116;2023-05-21T11:52:18;32.30;51.50
5334;DHT22;2689;50.954;7.116;2023-05-21T11:54:47;32.30;51.60
5334;DHT22;2689;50.954;7.116;2023-05-21T11:57:17;32.50;51.00
5334;DHT22;2689;50.954;7.116;2023-05-21T11:59:44;31.90;51.20
5334;DHT22;2689;50.954;7.116;2023-05-21T12:02:14;32.00;53.70
5334;DHT22;2689;50.954;7.116;2023-05-21T12:04:41;32.30;51.60
5334;DHT22;2689;50.954;7.116;2023-05-21T12:07:09;33.00;51.50
5334;DHT22;2689;50.954;7.116;2023-05-21T12:09:38;33.10;51.10
5334;DHT22;2689;50.954;7.116;2023-05-21T12:12:08;33.20;50.80
5334;DHT22;2689;50.954;7.116;2023-05-21T12:14:35;33.20;51.50
5334;DHT22;2689;50.954;7.116;2023-05-21T12:17:02;33.40;51.10
5334;DHT22;2689;50.954;7.116;2023-05-21T12:19:31;34.00;51.00
5334;DHT22;2689;50.954;7.116;2023-05-21T12:22:00;34.30;49.30
5334;DHT22;2689;50.954;7.116;2023-05-21T12:24:28;34.40;48.60
5334;DHT22;2689;50.954;7.116;2023-05-21T12:26:56;34.30;49.20
5334;DHT22;2689;50.954;7.116;2023-05-21T12:29:25;34.30;49.10
5334;DHT22;2689;50.954;7.116;2023-05-21T12:31:52;34.20;48.20
5334;DHT22;2689;50.954;7.116;2023-05-21T12:34:41;33.80;48.70
5334;DHT22;2689;50.954;7.116;2023-05-21T12:37:10;33.80;49.80
5334;DHT22;2689;50.954;7.116;2023-05-21T12:39:42;34.30;49.30
5334;DHT22;2689;50.954;7.116;2023-05-21T12:42:09;34.20;48.80
5334;DHT22;2689;50.954;7.116;2023-05-21T12:44:43;33.40;49.90
5334;DHT22;2689;50.954;7.116;2023-05-21T12:47:10;33.20;50.20
5334;DHT22;2689;50.954;7.116;2023-05-21T12:49:39;33.20;52.10
5334;DHT22;2689;50.954;7.116;2023-05-21T12:52:11;33.40;50.60
5334;DHT22;2689;50.954;7.116;2023-05-21T12:54:43;33.50;52.20
5334;DHT22;2689;50.954;7.116;2023-05-21T12:57:13;33.80;49.80
5334;DHT22;2689;50.954;7.116;2023-05-21T12:59:47;33.90;49.60
5334;DHT22;2689;50.954;7.116;2023-05-21T13:02:17;33.80;49.60
5334;DHT22;2689;50.954;7.116;2023-05-21T13:04:44;33.00;49.80
5334;DHT22;2689;50.954;7.116;2023-05-21T13:07:12;32.10;52.30
5334;DHT22;2689;50.954;7.116;2023-05-21T13:09:38;31.60;53.50
5334;DHT22;2689;50.954;7.116;2023-05-21T13:12:16;31.10;53.90
5334;DHT22;2689;50.954;7.116;2023-05-21T13:14:46;31.00;55.90
5334;DHT22;2689;50.954;7.116;2023-05-21T13:17:16;31.40;54.30
5334;DHT22;2689;50.954;7.116;2023-05-21T13:22:27;31.30;54.20
5334;DHT22;2689;50.954;7.116;2023-05-21T13:24:54;31.10;53.70
5334;DHT22;2689;50.954;7.116;2023-05-21T13:27:21;31.00;54.50
5334;DHT22;2689;50.954;7.116;2023-05-21T13:29:49;31.20;54.40
5334;DHT22;2689;50.954;7.116;2023-05-21T13:32:15;31.10;54.60
5334;DHT22;2689;50.954;7.116;2023-05-21T13:34:43;31.00;54.50
5334;DHT22;2689;50.954;7.116;2023-05-21T13:37:09;31.10;55.70
5334;DHT22;2689;50.954;7.116;2023-05-21T13:39:36;31.20;55.90
5334;DHT22;2689;50.954;7.116;2023-05-21T13:42:04;31.40;54.60
5334;DHT22;2689;50.954;7.116;2023-05-21T13:44:31;31.70;55.30
5334;DHT22;2689;50.954;7.116;2023-05-21T13:47:01;32.10;53.60
5334;DHT22;2689;50.954;7.116;2023-05-21T13:49:28;32.00;53.00
5334;DHT22;2689;50.954;7.116;2023-05-21T13:51:55;31.80;53.60
5334;DHT22;2689;50.954;7.116;2023-05-21T13:54:22;31.60;54.40
5334;DHT22;2689;50.954;7.116;2023-05-21T13:56:49;31.60;54.30
5334;DHT22;2689;50.954;7.116;2023-05-21T13:59:16;31.40;53.80
5334;DHT22;2689;50.954;7.116;2023-05-21T14:01:43;31.00;55.60
5334;DHT22;2689;50.954;7.116;2023-05-21T14:04:11;30.80;56.00
5334;DHT22;2689;50.954;7.116;2023-05-21T14:06:38;30.80;56.20
5334;DHT22;2689;50.954;7.116;2023-05-21T14:09:06;30.90;56.30
5334;DHT22;2689;50.954;7.116;2023-05-21T14:11:32;31.00;56.60
5334;DHT22;2689;50.954;7.116;2023-05-21T14:13:59;31.20;56.20
5334;DHT22;2689;50.954;7.116;2023-05-21T14:16:27;31.20;54.90
5334;DHT22;2689;50.954;7.116;2023-05-21T14:18:54;31.00;55.70
5334;DHT22;2689;50.954;7.116;2023-05-21T14:21:23;30.90;56.40
5334;DHT22;2689;50.954;7.116;2023-05-21T14:23:51;30.70;56.30
5334;DHT22;2689;50.954;7.116;2023-05-21T14:26:18;30.60;56.20
5334;DHT22;2689;50.954;7.116;2023-05-21T14:28:45;30.50;55.00
5334;DHT22;2689;50.954;7.116;2023-05-21T14:31:11;30.40;56.90
5334;DHT22;2689;50.954;7.116;2023-05-21T14:33:38;30.40;56.40
5334;DHT22;2689;50.954;7.116;2023-05-21T14:36:05;30.30;57.30
5334;DHT22;2689;50.954;7.116;2023-05-21T14:38:33;30.20;57.10
5334;DHT22;2689;50.954;7.116;2023-05-21T14:41:00;30.20;56.70
5334;DHT22;2689;50.954;7.116;2023-05-21T14:43:27;30.20;56.40
5334;DHT22;2689;50.954;7.116;2023-05-21T14:45:54;30.10;56.90
5334;DHT22;2689;50.954;7.116;2023-05-21T14:48:20;30.00;57.80
5334;DHT22;2689;50.954;7.116;2023-05-21T14:50:48;30.10;58.50
5334;DHT22;2689;50.954;7.116;2023-05-21T14:53:15;30.10;58.30
5334;DHT22;2689;50.954;7.116;2023-05-21T14:55:44;30.00;58.50
5334;DHT22;2689;50.954;7.116;2023-05-21T14:58:11;30.10;58.60
5334;DHT22;2689;50.954;7.116;2023-05-21T15:00:39;30.10;58.10
5334;DHT22;2689;50.954;7.116;2023-05-21T15:03:06;30.10;57.00
5334;DHT22;2689;50.954;7.116;2023-05-21T15:05:33;30.10;58.80
5334;DHT22;2689;50.954;7.116;2023-05-21T15:08:00;30.10;57.80
5334;DHT22;2689;50.954;7.116;2023-05-21T15:10:28;29.90;58.40
5334;DHT22;2689;50.954;7.116;2023-05-21T15:12:56;29.70;58.20
5334;DHT22;2689;50.954;7.116;2023-05-21T15:15:23;29.50;58.70
5334;DHT22;2689;50.954;7.116;2023-05-21T15:17:51;29.40;59.60
5334;DHT22;2689;50.954;7.116;2023-05-21T15:20:17;29.30;60.90
5334;DHT22;2689;50.954;7.116;2023-05-21T15:22:47;29.40;59.80
5334;DHT22;2689;50.954;7.116;2023-05-21T15:25:14;29.50;59.10
5334;DHT22;2689;50.954;7.116;2023-05-21T15:27:43;29.50;59.70
5334;DHT22;2689;50.954;7.116;2023-05-21T15:30:11;29.40;60.40
5334;DHT22;2689;50.954;7.116;2023-05-21T15:32:38;29.40;60.10
5334;DHT22;2689;50.954;7.116;2023-05-21T15:35:06;29.30;59.90
5334;DHT22;2689;50.954;7.116;2023-05-21T15:37:34;29.20;60.70
5334;DHT22;2689;50.954;7.116;2023-05-21T15:40:00;29.10;60.80
5334;DHT22;2689;50.954;7.116;2023-05-21T15:42:27;29.00;60.40
5334;DHT22;2689;50.954;7.116;2023-05-21T15:44:56;28.80;61.40
5334;DHT22;2689;50.954;7.116;2023-05-21T15:47:24;28.60;62.20
5334;DHT22;2689;50.954;7.116;2023-05-21T15:49:51;28.40;62.60
5334;DHT22;2689;50.954;7.116;2023-05-21T15:52:17;28.10;63.70
5334;DHT22;2689;50.954;7.116;2023-05-21T15:54:46;27.80;64.10
5334;DHT22;2689;50.954;7.116;2023-05-21T15:57:12;27.60;64.70
5334;DHT22;2689;50.954;7.116;2023-05-21T15:59:39;27.40;65.40
5334;DHT22;2689;50.954;7.116;2023-05-21T16:02:06;27.30;65.70
5334;DHT22;2689;50.954;7.116;2023-05-21T16:04:35;27.30;65.80
5334;DHT22;2689;50.954;7.116;2023-05-21T16:07:01;27.10;65.80
5334;DHT22;2689;50.954;7.116;2023-05-21T16:09:28;27.00;66.80
5334;DHT22;2689;50.954;7.116;2023-05-21T16:11:55;26.90;67.60
5334;DHT22;2689;50.954;7.116;2023-05-21T16:14:23;26.80;68.00
5334;DHT22;2689;50.954;7.116;2023-05-21T16:16:49;26.70;68.40